Time;durP1;ratioP1;P1;durP2;ratioP2;P2;SDS_P1;SDS_P2;PMS_P1;PMS_P2;Temp;Humidity;BMP_temperature;BMP_pressure;BME280_temperature;BME280_humidity;BME280_pressure;Samples;Min_cycle;Max_cycle;Signal;HPM_P1;HPM_P2
2023/12/26 00:01:48;;;;;;;81.13;40.97;;;;;;;-143.21;69.35;73329.63;6209626;23;20169;-77
2023/12/26 00:04:15;;;;;;;85.30;38.97;;;;;;;-143.21;69.32;73335.59;6208666;23;20564;-78
2023/12/26 00:06:44;;;;;;;71.23;35.50;;;;;;;-143.21;69.39;73335.59;6210391;23;20317;-77
2023/12/26 00:09:12;;;;;;;76.17;33.13;;;;;;;-143.21;68.80;73337.56;6210301;23;20196;-78
2023/12/26 00:15:11;;;;;;;73.07;35.80;;;;;;;-143.21;68.62;73331.63;6087510;23;20251;-78
2023/12/26 00:17:38;;;;;;;72.53;35.77;;;;;;;-143.21;68.79;73333.59;6199865;23;20281;-78
2023/12/26 00:20:13;;;;;;;76.10;36.60;;;;;;;-143.21;68.37;73339.56;6179377;23;20630;-79
2023/12/26 00:22:40;;;;;;;75.30;36.80;;;;;;;-143.21;68.35;73339.56;6179895;23;20169;-79
2023/12/26 00:25:08;;;;;;;75.30;36.17;;;;;;;-143.21;68.62;73337.56;6180215;23;20175;-79
2023/12/26 00:27:37;;;;;;;80.73;37.47;;;;;;;-143.21;68.72;73359.41;6179133;23;20208;-79
2023/12/26 00:30:04;;;;;;;73.97;37.03;;;;;;;-143.21;69.34;73359.41;6179144;23;20171;-78
2023/12/26 00:32:33;;;;;;;83.07;37.80;;;;;;;-143.21;69.71;73373.28;6179532;23;20204;-87
2023/12/26 00:35:00;;;;;;;74.90;37.47;;;;;;;-143.21;69.58;73371.28;6180385;23;20178;-76
2023/12/26 00:37:27;;;;;;;79.90;39.00;;;;;;;-143.21;69.12;73369.31;6178463;23;20167;-78
2023/12/26 00:43:18;;;;;;;105.37;50.00;;;;;;;-143.21;69.55;73383.19;6073554;23;20238;-86
2023/12/26 00:45:45;;;;;;;104.87;47.53;;;;;;;-143.21;69.65;73395.09;6180599;23;20284;-83
2023/12/26 00:48:13;;;;;;;101.27;46.20;;;;;;;-143.21;70.50;73401.06;6180377;23;20203;-80
2023/12/26 00:50:57;;;;;;;96.20;46.70;;;;;;;-143.21;70.63;73434.78;6182818;23;20170;-82
2023/12/26 00:53:24;;;;;;;108.20;48.70;;;;;;;-143.21;71.02;73466.53;6180758;23;20185;-81
2023/12/26 00:55:51;;;;;;;105.17;46.03;;;;;;;-143.21;73.37;73504.22;6180983;23;20169;-81
2023/12/26 00:58:21;;;;;;;110.20;48.87;;;;;;;-143.21;74.44;73498.25;6180292;23;20492;-81
2023/12/26 01:00:48;;;;;;;81.67;37.67;;;;;;;-143.21;74.38;73496.28;6181165;23;20265;-81
2023/12/26 01:03:25;;;;;;;85.77;39.90;;;;;;;-143.21;74.42;73486.34;6182477;23;20692;-81
2023/12/26 01:05:52;;;;;;;83.80;38.07;;;;;;;-143.21;73.72;73506.19;6181293;23;20160;-81
2023/12/26 01:08:19;;;;;;;73.60;35.63;;;;;;;-143.21;74.37;73520.09;6180426;23;20631;-82
2023/12/26 01:10:46;;;;;;;78.87;36.33;;;;;;;-143.21;74.78;73526.03;6181122;23;20171;-83
2023/12/26 01:13:14;;;;;;;76.60;37.43;;;;;;;-143.21;75.06;73516.13;6180942;23;20197;-82
2023/12/26 01:15:40;;;;;;;73.73;36.57;;;;;;;-143.21;74.64;73508.19;6182101;23;20260;-82
2023/12/26 01:18:08;;;;;;;71.33;33.70;;;;;;;-143.21;73.56;73514.13;6195990;23;20195;-82
2023/12/26 01:20:39;;;;;;;55.03;29.10;;;;;;;-143.21;73.95;73532.00;6210728;23;20178;-82
2023/12/26 01:23:06;;;;;;;57.47;30.97;;;;;;;-143.21;75.45;73545.88;6210747;23;20263;-82
2023/12/26 01:25:33;;;;;;;70.77;32.63;;;;;;;-143.21;75.64;73532.00;6214471;23;20171;-81
2023/12/26 01:28:01;;;;;;;68.27;32.57;;;;;;;-143.21;74.89;73512.16;6211114;23;20613;-82
2023/12/26 01:30:28;;;;;;;63.70;31.47;;;;;;;-143.21;74.55;73492.31;6210532;23;20173;-80
2023/12/26 01:32:54;;;;;;;66.67;32.57;;;;;;;-143.21;74.49;73486.34;6210455;23;20283;-80
2023/12/26 01:35:21;;;;;;;51.70;25.80;;;;;;;-143.21;73.52;73480.41;6211639;23;20295;-82
2023/12/26 01:37:49;;;;;;;47.00;24.90;;;;;;;-143.21;73.04;73492.31;6211360;23;20173;-80
2023/12/26 01:40:16;;;;;;;53.33;23.10;;;;;;;-143.21;74.17;73520.09;6210548;23;20175;-81
2023/12/26 01:42:46;;;;;;;45.67;22.83;;;;;;;-143.21;75.05;73518.09;6210404;23;20502;-80
2023/12/26 01:45:13;;;;;;;46.63;23.73;;;;;;;-143.21;74.28;73508.19;6209182;23;20981;-79
2023/12/26 01:47:40;;;;;;;58.97;26.50;;;;;;;-143.21;74.39;73484.38;6212711;23;20167;-80
2023/12/26 01:50:08;;;;;;;54.20;27.97;;;;;;;-143.21;73.49;73470.50;6210265;23;20164;-80
2023/12/26 01:52:38;;;;;;;51.07;27.63;;;;;;;-143.21;72.22;73458.59;6210449;23;20192;-81
2023/12/26 01:55:08;;;;;;;48.57;26.20;;;;;;;-143.21;72.02;73464.53;6210582;23;20174;-80
2023/12/26 01:57:37;;;;;;;45.37;21.27;;;;;;;-143.21;71.84;73472.47;6211201;23;20180;-80
2023/12/26 02:00:05;;;;;;;45.90;20.53;;;;;;;-143.21;71.90;73476.44;6211935;23;20628;-81
2023/12/26 02:02:34;;;;;;;37.77;20.30;;;;;;;-143.21;72.25;73480.41;6210016;23;20166;-81
2023/12/26 02:05:02;;;;;;;46.07;20.30;;;;;;;-143.21;72.21;73482.38;6209981;23;20171;-81
2023/12/26 02:07:29;;;;;;;34.97;16.30;;;;;;;-143.21;72.23;73480.41;6211114;23;20203;-80
2023/12/26 02:09:56;;;;;;;30.50;15.80;;;;;;;-143.21;72.49;73486.34;6212348;23;20571;-83
2023/12/26 02:12:24;;;;;;;28.73;14.80;;;;;;;-143.21;71.83;73478.41;6209420;23;20172;-83
2023/12/26 02:14:52;;;;;;;36.00;16.63;;;;;;;-143.21;72.10;73464.53;6211925;23;20174;-82
2023/12/26 02:17:23;;;;;;;33.40;14.70;;;;;;;-143.21;71.71;73462.56;6212080;23;20671;-82
2023/12/26 02:19:50;;;;;;;28.80;14.17;;;;;;;-143.21;70.71;73452.63;6213093;23;20235;-83
2023/12/26 02:22:17;;;;;;;27.53;13.70;;;;;;;-143.21;70.96;73450.66;6211918;23;20179;-81
2023/12/26 02:24:47;;;;;;;26.83;13.60;;;;;;;-143.21;70.49;73440.72;6210875;23;20196;-81
2023/12/26 02:27:17;;;;;;;27.77;14.37;;;;;;;-143.21;70.40;73452.63;6210358;23;20564;-81
2023/12/26 02:29:45;;;;;;;28.90;13.83;;;;;;;-143.21;71.26;73484.38;6210533;23;20161;-81
2023/12/26 02:32:14;;;;;;;36.73;18.73;;;;;;;-143.21;72.33;73492.31;6211447;23;20268;-80
2023/12/26 02:34:41;;;;;;;35.97;18.97;;;;;;;-143.21;72.50;73488.34;6211142;23;20174;-80
2023/12/26 02:37:08;;;;;;;34.77;18.13;;;;;;;-143.21;72.20;73488.34;6209696;23;20622;-80
2023/12/26 02:39:36;;;;;;;40.90;18.80;;;;;;;-143.21;71.98;73480.41;6210135;23;20181;-80
2023/12/26 02:42:04;;;;;;;34.10;18.70;;;;;;;-143.21;71.47;73478.41;6210405;23;20175;-80
2023/12/26 02:44:31;;;;;;;41.43;19.07;;;;;;;-143.21;71.21;73476.44;6211933;23;20169;-79
2023/12/26 02:46:58;;;;;;;32.00;17.90;;;;;;;-143.21;71.68;73488.34;6210213;23;20184;-80
2023/12/26 02:49:24;;;;;;;36.10;18.50;;;;;;;-143.21;71.49;73480.41;6209802;23;20169;-80
2023/12/26 02:51:51;;;;;;;40.87;18.67;;;;;;;-143.21;71.26;73478.41;6210084;23;20474;-80
2023/12/26 02:54:18;;;;;;;39.57;19.77;;;;;;;-143.21;71.95;73482.38;6211849;23;20204;-80
2023/12/26 02:56:46;;;;;;;36.93;19.27;;;;;;;-143.21;71.64;73480.41;6211872;23;20174;-81
2023/12/26 02:59:17;;;;;;;39.93;19.37;;;;;;;-143.21;71.00;73480.41;6210467;23;20174;-80
2023/12/26 03:01:45;;;;;;;37.63;17.93;;;;;;;-143.21;71.03;73486.34;6211259;23;20166;-82
2023/12/26 03:04:12;;;;;;;35.53;18.43;;;;;;;-143.21;71.00;73480.41;6210967;23;20196;-82
2023/12/26 03:06:39;;;;;;;35.90;18.40;;;;;;;-143.21;71.16;73478.41;6213096;23;20207;-81
2023/12/26 03:09:06;;;;;;;43.37;19.87;;;;;;;-143.21;71.11;73478.41;6210873;23;20665;-82
2023/12/26 03:11:33;;;;;;;40.60;21.10;;;;;;;-143.21;70.77;73492.31;6210755;23;20169;-82
2023/12/26 03:14:00;;;;;;;40.50;21.77;;;;;;;-143.21;71.50;73498.25;6210142;23;20207;-81
2023/12/26 03:16:28;;;;;;;47.10;23.37;;;;;;;-143.21;71.73;73498.25;6212358;23;20177;-80
2023/12/26 03:18:55;;;;;;;51.13;25.00;;;;;;;-143.21;71.07;73506.19;6209659;23;20197;-80
2023/12/26 03:21:22;;;;;;;50.37;25.53;;;;;;;-143.21;71.63;73506.19;6210047;23;20169;-80
2023/12/26 03:23:49;;;;;;;50.63;25.23;;;;;;;-143.21;72.29;73520.09;6209855;23;20160;-80
2023/12/26 03:26:15;;;;;;;46.53;24.97;;;;;;;-143.21;72.62;73526.03;6209604;23;20174;-79
2023/12/26 03:28:42;;;;;;;50.53;23.93;;;;;;;-143.21;72.50;73522.06;6212178;23;20654;-81
2023/12/26 03:31:09;;;;;;;66.10;27.60;;;;;;;-143.21;72.06;73524.06;6211410;23;20170;-81
2023/12/26 03:33:38;;;;;;;57.17;29.00;;;;;;;-143.21;72.60;73524.06;6205087;23;20195;-78
2023/12/26 03:36:06;;;;;;;65.30;30.40;;;;;;;-143.21;72.40;73533.97;6209329;23;20179;-78
2023/12/26 03:38:33;;;;;;;60.10;30.50;;;;;;;-143.21;72.88;73549.84;6213808;23;20172;-87
2023/12/26 03:41:00;;;;;;;58.97;30.97;;;;;;;-143.21;72.46;73549.84;6211508;23;20163;-83
2023/12/26 03:43:27;;;;;;;63.67;31.90;;;;;;;-143.21;72.75;73555.78;6211129;23;20208;-85
2023/12/26 03:45:53;;;;;;;72.13;34.17;;;;;;;-143.21;73.02;73543.88;6211578;23;20169;-81
2023/12/26 03:48:20;;;;;;;65.30;32.10;;;;;;;-143.21;73.41;73555.78;6212215;23;20173;-82
2023/12/26 03:50:48;;;;;;;67.97;33.80;;;;;;;-143.21;73.52;73551.81;6212739;23;20192;-82
2023/12/26 03:53:15;;;;;;;66.67;34.20;;;;;;;-143.21;73.34;73537.94;6212099;23;20207;-83
2023/12/26 03:55:42;;;;;;;60.37;32.53;;;;;;;-143.21;73.83;73541.91;6212888;23;20274;-82
2023/12/26 03:58:09;;;;;;;69.50;32.33;;;;;;;-143.21;72.62;73539.91;6212015;23;20172;-81
2023/12/26 04:00:35;;;;;;;68.10;32.07;;;;;;;-143.21;72.44;73549.84;6213246;23;20499;-81
2023/12/26 04:03:02;;;;;;;62.23;31.53;;;;;;;-143.21;72.68;73561.75;6212862;23;20168;-82
2023/12/26 04:05:29;;;;;;;68.13;34.43;;;;;;;-143.21;73.43;73557.78;6212241;23;20179;-83
2023/12/26 04:07:57;;;;;;;70.17;33.93;;;;;;;-143.21;73.73;73571.66;6211274;23;20173;-81
2023/12/26 04:10:24;;;;;;;68.67;34.80;;;;;;;-143.21;73.54;73573.66;6212521;23;20169;-81
2023/12/26 04:12:51;;;;;;;72.23;36.07;;;;;;;-143.21;74.20;73579.59;6212503;23;20497;-87
2023/12/26 04:15:18;;;;;;;76.93;38.60;;;;;;;-143.21;74.34;73587.53;6212611;23;20205;-86
2023/12/26 04:17:44;;;;;;;78.00;38.60;;;;;;;-143.21;73.79;73577.63;6212105;23;20201;-84
2023/12/26 04:20:12;;;;;;;79.47;38.27;;;;;;;-143.21;74.00;73571.66;6212223;23;20171;-86
2023/12/26 04:22:38;;;;;;;79.67;40.50;;;;;;;-143.21;74.00;73565.72;6216125;23;20172;-86
2023/12/26 04:25:08;;;;;;;86.23;40.27;;;;;;;-143.21;73.81;73577.63;6212652;23;20241;-84
2023/12/26 04:27:35;;;;;;;82.27;40.30;;;;;;;-143.21;74.18;73585.56;6212200;23;20170;-85
2023/12/26 04:30:02;;;;;;;83.50;39.87;;;;;;;-143.21;73.86;73587.53;6211942;23;20179;-84
2023/12/26 04:32:29;;;;;;;81.00;41.57;;;;;;;-143.21;73.94;73585.56;6213192;23;20207;-84
2023/12/26 04:34:56;;;;;;;88.73;41.00;;;;;;;-143.21;73.54;73581.59;6212447;23;20192;-86
2023/12/26 04:37:26;;;;;;;86.97;39.67;;;;;;;-143.21;73.20;73585.56;6212305;23;20178;-87
2023/12/26 04:39:52;;;;;;;78.07;38.63;;;;;;;-143.21;73.28;73595.47;6211851;23;20572;-87
2023/12/26 04:42:21;;;;;;;79.27;38.57;;;;;;;-143.21;73.60;73599.44;6211789;23;20174;-86
2023/12/26 04:44:48;;;;;;;83.80;38.63;;;;;;;-143.21;73.76;73609.34;6212872;23;20503;-86
2023/12/26 04:47:15;;;;;;;77.93;37.93;;;;;;;-143.21;73.96;73617.28;6211934;23;20171;-87
2023/12/26 04:49:41;;;;;;;75.63;37.23;;;;;;;-143.21;74.19;73621.25;6211768;23;20557;-86
2023/12/26 04:52:08;;;;;;;80.17;40.00;;;;;;;-143.21;74.79;73623.25;6211197;23;20180;-86
2023/12/26 04:54:35;;;;;;;79.87;40.33;;;;;;;-143.21;74.26;73613.31;6212368;23;20671;-87
2023/12/26 04:57:02;;;;;;;87.20;41.60;;;;;;;-143.21;73.95;73615.31;6211363;23;20251;-87
2023/12/26 04:59:31;;;;;;;78.57;40.10;;;;;;;-143.21;74.14;73619.28;6211555;23;20171;-87
2023/12/26 05:01:57;;;;;;;79.67;41.87;;;;;;;-143.21;73.95;73623.25;6211900;23;20163;-88
2023/12/26 05:04:24;;;;;;;88.30;41.67;;;;;;;-143.21;74.13;73623.25;6212124;23;20171;-84
2023/12/26 05:06:51;;;;;;;85.23;41.10;;;;;;;-143.21;73.67;73629.19;6212847;23;20164;-88
2023/12/26 05:09:18;;;;;;;77.63;42.33;;;;;;;-143.21;73.85;73633.16;6211356;23;20245;-86
2023/12/26 05:11:45;;;;;;;82.80;42.80;;;;;;;-143.21;74.08;73629.19;6211050;23;20953;-85
2023/12/26 05:14:12;;;;;;;73.83;41.20;;;;;;;-143.21;73.62;73635.16;6210942;23;20543;-86
2023/12/26 05:16:42;;;;;;;81.63;40.47;;;;;;;-143.21;74.18;73645.06;6212090;23;20168;-85
2023/12/26 05:19:09;;;;;;;74.33;41.37;;;;;;;-143.21;74.25;73645.06;6208886;23;20202;-85
2023/12/26 05:21:37;;;;;;;81.70;42.53;;;;;;;-143.21;74.12;73643.09;6211721;23;20168;-86
2023/12/26 05:24:05;;;;;;;80.10;42.83;;;;;;;-143.21;74.27;73637.13;6213444;23;20176;-85
2023/12/26 05:26:38;;;;;;;84.10;43.63;;;;;;;-143.21;74.21;73641.09;6218096;23;20181;-85
2023/12/26 05:29:05;;;;;;;88.17;45.33;;;;;;;-143.21;74.88;73656.97;6213189;23;20155;-85
2023/12/26 05:31:32;;;;;;;87.87;45.23;;;;;;;-143.21;74.80;73649.03;6212597;23;20245;-85
2023/12/26 05:34:04;;;;;;;92.27;45.77;;;;;;;-143.21;74.27;73647.06;6211045;23;20191;-85
2023/12/26 05:36:31;;;;;;;90.57;44.97;;;;;;;-143.21;74.46;73655.00;6212250;23;20223;-86
2023/12/26 05:38:58;;;;;;;79.40;43.33;;;;;;;-143.21;74.51;73653.00;6211372;23;20174;-84
2023/12/26 05:41:25;;;;;;;83.77;44.70;;;;;;;-143.21;74.70;73664.91;6211470;23;20167;-85
2023/12/26 05:43:51;;;;;;;79.63;43.70;;;;;;;-143.21;74.91;73666.88;6210877;23;20222;-85
2023/12/26 05:46:20;;;;;;;83.10;43.47;;;;;;;-143.21;74.89;73664.91;6211363;23;20166;-85
2023/12/26 05:48:47;;;;;;;81.87;42.20;;;;;;;-143.21;74.72;73666.88;6210957;23;20232;-84
2023/12/26 05:51:15;;;;;;;89.13;44.87;;;;;;;-143.21;74.80;73666.88;6212413;23;20183;-85
2023/12/26 05:53:42;;;;;;;94.27;45.57;;;;;;;-143.21;74.80;73672.84;6210496;23;20254;-81
2023/12/26 05:56:09;;;;;;;95.93;45.67;;;;;;;-143.21;75.08;73676.81;6210156;23;20188;-82
2023/12/26 05:58:36;;;;;;;93.97;46.37;;;;;;;-143.21;75.06;73672.84;6210474;23;20163;-81
2023/12/26 06:01:03;;;;;;;85.33;45.57;;;;;;;-143.21;75.20;73674.81;6212130;23;20174;-81
2023/12/26 06:03:30;;;;;;;90.70;46.10;;;;;;;-143.21;75.75;73670.84;6210636;23;20173;-81
2023/12/26 06:05:56;;;;;;;91.17;46.43;;;;;;;-143.21;75.51;73674.81;6210786;23;20173;-82
2023/12/26 06:08:25;;;;;;;85.93;46.33;;;;;;;-143.21;75.17;73670.84;6211288;23;20167;-83
2023/12/26 06:10:56;;;;;;;94.10;45.13;;;;;;;-143.21;75.17;73664.91;6211678;23;20225;-84
2023/12/26 06:13:23;;;;;;;87.77;45.47;;;;;;;-143.21;75.08;73670.84;6212364;23;20167;-87
2023/12/26 06:15:49;;;;;;;88.73;46.63;;;;;;;-143.21;75.18;73678.78;6211073;23;20221;-87
2023/12/26 06:18:17;;;;;;;95.10;46.53;;;;;;;-143.21;75.22;73678.78;6210564;23;20202;-86
2023/12/26 06:20:43;;;;;;;93.80;47.17;;;;;;;-143.21;75.30;73676.81;6210858;23;20263;-86
2023/12/26 06:23:10;;;;;;;99.57;48.83;;;;;;;-143.21;75.41;73692.69;6212134;23;20179;-84
2023/12/26 06:25:38;;;;;;;94.97;47.60;;;;;;;-143.21;75.33;73692.69;6210784;23;20163;-84
2023/12/26 06:28:05;;;;;;;105.07;46.40;;;;;;;-143.21;75.58;73694.66;6210788;23;20168;-85
2023/12/26 06:30:32;;;;;;;83.33;43.47;;;;;;;-143.21;75.56;73700.63;6216039;23;20172;-86
2023/12/26 06:32:59;;;;;;;83.33;44.30;;;;;;;-143.21;75.15;73684.75;6214548;23;20195;-85
2023/12/26 06:35:26;;;;;;;92.77;47.00;;;;;;;-143.21;75.44;73692.69;6212134;23;20201;-81
2023/12/26 06:37:53;;;;;;;111.00;49.17;;;;;;;-143.21;75.85;73692.69;6211734;23;20648;-84
2023/12/26 06:40:20;;;;;;;101.97;52.00;;;;;;;-143.21;75.72;73690.69;6211672;23;20249;-82
2023/12/26 06:42:48;;;;;;;114.07;55.43;;;;;;;-143.21;75.67;73686.72;6210704;23;20187;-82
2023/12/26 06:45:15;;;;;;;131.47;63.27;;;;;;;-143.21;75.76;73684.75;6212227;23;20193;-84
2023/12/26 06:47:42;;;;;;;127.87;63.27;;;;;;;-143.21;75.69;73676.81;6210595;23;20183;-86
2023/12/26 06:50:09;;;;;;;135.03;64.50;;;;;;;-143.21;75.47;73676.81;6209487;23;20542;-86
2023/12/26 06:52:37;;;;;;;135.50;63.87;;;;;;;-143.21;75.43;73674.81;6208784;23;20174;-86
2023/12/26 06:55:04;;;;;;;131.53;62.90;;;;;;;-143.21;75.57;73676.81;6210553;23;20250;-86
2023/12/26 06:57:31;;;;;;;129.73;62.80;;;;;;;-143.21;75.53;73676.81;6212026;23;20168;-87
2023/12/26 06:59:59;;;;;;;124.77;58.30;;;;;;;-143.21;75.72;73682.75;6211061;23;20164;-84
2023/12/26 07:02:26;;;;;;;108.27;54.43;;;;;;;-143.21;75.67;73676.81;6210843;23;20172;-85
2023/12/26 07:04:53;;;;;;;105.63;52.43;;;;;;;-143.21;76.27;73686.72;6214933;23;20167;-85
2023/12/26 07:07:20;;;;;;;114.13;54.63;;;;;;;-143.21;76.72;73678.78;6222033;23;20182;-86
2023/12/26 07:09:46;;;;;;;128.30;61.00;;;;;;;-143.21;77.50;73686.72;6221105;23;20172;-86
2023/12/26 07:12:13;;;;;;;120.97;61.70;;;;;;;-143.21;78.16;73680.78;6220729;23;20174;-86
2023/12/26 07:14:40;;;;;;;129.53;61.87;;;;;;;-143.21;78.57;73676.81;6221495;23;20202;-86
2023/12/26 07:17:08;;;;;;;122.80;60.50;;;;;;;-143.21;78.34;73668.88;6222938;23;20199;-86
2023/12/26 07:19:35;;;;;;;123.53;60.23;;;;;;;-143.21;77.59;73653.00;6219874;23;20164;-85
2023/12/26 07:22:02;;;;;;;127.97;59.80;;;;;;;-143.21;76.92;73639.13;6214220;23;20525;-84
2023/12/26 07:24:29;;;;;;;124.70;58.83;;;;;;;-143.21;75.84;73633.16;6216393;23;20164;-84
2023/12/26 07:26:56;;;;;;;115.63;57.47;;;;;;;-143.21;75.90;73637.13;6215816;23;20169;-86
2023/12/26 07:29:23;;;;;;;115.37;56.57;;;;;;;-143.21;76.51;73641.09;6220718;23;20171;-87
2023/12/26 07:31:53;;;;;;;109.97;54.20;;;;;;;-143.21;77.27;73629.19;6221330;23;20169;-85
2023/12/26 07:34:21;;;;;;;115.73;53.30;;;;;;;-143.21;76.54;73615.31;6218932;23;20221;-85
2023/12/26 07:36:48;;;;;;;102.90;51.27;;;;;;;-143.21;75.98;73603.41;6219135;23;20200;-87
2023/12/26 07:39:15;;;;;;;105.73;50.13;;;;;;;-143.21;75.93;73603.41;6225797;23;20183;-89
2023/12/26 07:41:42;;;;;;;100.40;48.47;;;;;;;-143.21;76.38;73597.47;6217675;23;20181;-79
2023/12/26 07:44:09;;;;;;;87.30;45.63;;;;;;;-143.21;75.51;73579.59;6208971;23;20176;-80
2023/12/26 07:46:36;;;;;;;95.67;45.77;;;;;;;-143.21;75.38;73569.69;6209842;23;20172;-80
2023/12/26 07:49:03;;;;;;;85.70;44.73;;;;;;;-143.21;75.88;73553.81;6211748;23;20523;-81
2023/12/26 07:51:31;;;;;;;83.27;43.10;;;;;;;-143.21;75.01;73551.81;6212633;23;20239;-81
2023/12/26 07:53:59;;;;;;;86.47;41.70;;;;;;;-143.21;74.89;73533.97;6211192;23;20174;-80
2023/12/26 07:56:26;;;;;;;75.73;38.43;;;;;;;-143.21;73.23;73524.06;6209752;23;20660;-79
2023/12/26 07:58:54;;;;;;;70.07;36.77;;;;;;;-143.21;73.51;73524.06;6209233;23;20269;-80
2023/12/26 08:01:21;;;;;;;67.93;36.67;;;;;;;-143.21;73.86;73522.06;6211041;23;20173;-79
2023/12/26 08:03:48;;;;;;;67.27;33.97;;;;;;;-143.21;73.83;73502.22;6209588;23;20257;-79
2023/12/26 08:06:15;;;;;;;70.47;34.47;;;;;;;-143.21;73.04;73502.22;6209089;23;20269;-78
2023/12/26 08:08:43;;;;;;;55.87;31.83;;;;;;;-143.21;72.40;73494.28;6209897;23;20204;-81
2023/12/26 08:11:12;;;;;;;55.23;31.30;;;;;;;-143.21;72.70;73492.31;6212889;23;20216;-80
2023/12/26 08:13:39;;;;;;;56.30;33.73;;;;;;;-143.21;72.49;73478.41;6211660;23;20201;-79
2023/12/26 08:16:07;;;;;;;53.83;29.37;;;;;;;-143.21;72.15;73478.41;6210609;23;20661;-80
2023/12/26 08:18:34;;;;;;;52.37;28.83;;;;;;;-143.21;72.70;73472.47;6212418;23;20264;-79
2023/12/26 08:21:03;;;;;;;53.60;28.73;;;;;;;-143.21;72.29;73464.53;6210162;23;20177;-80
2023/12/26 08:23:29;;;;;;;53.13;29.03;;;;;;;-143.21;72.25;73462.56;6211063;23;20232;-82
2023/12/26 08:25:58;;;;;;;57.40;30.07;;;;;;;-143.21;72.86;73450.66;6212007;23;20170;-80
2023/12/26 08:28:24;;;;;;;55.87;29.13;;;;;;;-143.21;72.63;73442.72;6213281;23;20166;-81
2023/12/26 08:30:51;;;;;;;57.40;28.97;;;;;;;-143.21;71.73;73420.91;6211918;23;20166;-80
2023/12/26 08:33:21;;;;;;;50.50;29.67;;;;;;;-143.21;71.35;73409.00;6209585;23;20177;-81
2023/12/26 08:35:49;;;;;;;61.50;30.37;;;;;;;-143.21;71.04;73407.00;6198177;23;20669;-81
2023/12/26 08:38:16;;;;;;;54.27;29.60;;;;;;;-143.21;70.94;73403.03;6211431;23;20158;-80
2023/12/26 08:40:45;;;;;;;50.87;30.23;;;;;;;-143.21;71.13;73399.06;6211103;23;20174;-82
2023/12/26 08:43:13;;;;;;;63.40;31.40;;;;;;;-143.21;70.73;73391.13;6212272;23;20212;-82
2023/12/26 08:45:40;;;;;;;58.33;30.23;;;;;;;-143.21;69.61;73367.34;6212869;23;20166;-81
2023/12/26 08:48:09;;;;;;;56.93;30.93;;;;;;;-143.21;69.55;73365.34;6211554;23;20546;-81
2023/12/26 08:50:36;;;;;;;59.37;31.73;;;;;;;-143.21;69.56;73363.38;6211092;23;20174;-75
2023/12/26 08:53:03;;;;;;;59.30;31.00;;;;;;;-143.21;69.22;73359.41;6210005;23;20245;-84
2023/12/26 08:55:30;;;;;;;56.53;31.80;;;;;;;-143.21;69.13;73349.47;6213536;23;20676;-86
2023/12/26 08:57:57;;;;;;;58.10;31.63;;;;;;;-143.21;67.75;73327.66;6213625;23;20220;-86
2023/12/26 09:00:25;;;;;;;58.57;33.70;;;;;;;-143.21;67.83;73323.69;6213673;23;20261;-85
2023/12/26 09:02:52;;;;;;;58.47;33.57;;;;;;;-143.21;68.36;73327.66;6213874;23;20169;-85
2023/12/26 09:05:19;;;;;;;66.37;33.57;;;;;;;-143.21;68.74;73315.75;6213086;23;20185;-88
2023/12/26 09:07:46;;;;;;;58.80;32.40;;;;;;;-143.21;68.62;73311.78;6213827;23;20684;-89
2023/12/26 09:10:14;;;;;;;63.97;34.07;;;;;;;-143.21;68.54;73303.84;6212680;23;20664;-85
2023/12/26 09:12:40;;;;;;;64.77;35.07;;;;;;;-143.21;68.31;73291.94;6212522;23;20197;-85
2023/12/26 09:15:10;;;;;;;66.73;34.73;;;;;;;-143.21;67.80;73280.03;6212207;23;20268;-85
2023/12/26 09:17:39;;;;;;;63.23;33.67;;;;;;;-143.21;67.32;73270.13;6204776;23;20194;-85
2023/12/26 09:20:06;;;;;;;58.40;33.47;;;;;;;-143.21;67.31;73254.25;6182000;23;20163;-85
2023/12/26 09:22:34;;;;;;;69.57;32.50;;;;;;;-143.21;67.23;73250.28;6183452;23;20199;-87
2023/12/26 09:25:07;;;;;;;52.20;27.60;;;;;;;-143.21;66.45;73222.53;6183931;23;20236;-89
2023/12/26 09:27:34;;;;;;;46.40;27.20;;;;;;;-143.21;64.54;73200.69;6185929;23;20191;-91
2023/12/26 09:30:01;;;;;;;51.17;26.63;;;;;;;-143.21;63.88;73190.78;6185374;23;20163;-90
2023/12/26 09:32:28;;;;;;;46.97;25.93;;;;;;;-143.21;62.84;73166.97;6183752;23;20169;-90
2023/12/26 09:34:57;;;;;;;47.63;25.87;;;;;;;-143.21;62.88;73161.03;6183781;23;20265;-89
2023/12/26 09:37:23;;;;;;;42.70;25.80;;;;;;;-143.21;62.49;73149.13;6190839;23;20250;-86
2023/12/26 09:39:52;;;;;;;45.37;25.10;;;;;;;-143.21;62.51;73143.16;6183030;23;20217;-86
2023/12/26 09:42:26;;;;;;;43.07;24.97;;;;;;;-143.21;62.66;73125.31;6183667;23;20173;-88
2023/12/26 09:44:54;;;;;;;44.77;24.50;;;;;;;-143.21;62.44;73117.38;6183506;23;20229;-86
2023/12/26 09:47:24;;;;;;;45.47;23.63;;;;;;;-143.21;62.07;73107.47;6182883;23;20170;-85
2023/12/26 09:50:03;;;;;;;43.47;24.30;;;;;;;-143.21;62.01;73091.59;6181625;23;20171;-86
2023/12/26 09:52:35;;;;;;;40.13;23.47;;;;;;;-143.21;61.39;73071.75;6180737;23;20217;-88
2023/12/26 09:55:03;;;;;;;38.93;22.50;;;;;;;-143.21;62.25;73045.97;6180268;23;20194;-78
2023/12/26 09:57:32;;;;;;;39.20;21.63;;;;;;;-143.21;61.07;72960.69;6176975;23;20270;-85
2023/12/26 09:59:59;;;;;;;32.70;18.73;;;;;;;-143.21;55.80;72782.16;6178819;23;20171;-83
2023/12/26 10:02:26;;;;;;;31.83;18.33;;;;;;;-143.21;49.61;72536.25;6180255;23;20167;-83
2023/12/26 10:04:53;;;;;;;30.77;19.60;;;;;;;-143.21;42.04;72272.47;6182064;23;20206;-84
2023/12/26 10:07:22;;;;;;;36.23;18.80;;;;;;;-143.21;38.60;72074.16;6181153;23;20181;-79
2023/12/26 10:09:49;;;;;;;35.53;18.77;;;;;;;-143.21;36.08;71903.63;6179439;23;20178;-82
2023/12/26 10:12:16;;;;;;;27.37;15.20;;;;;;;-143.21;33.51;71758.88;6179544;23;20592;-80
2023/12/26 10:14:43;;;;;;;34.30;15.40;;;;;;;-143.21;31.33;71604.22;6178752;23;20175;-79
2023/12/26 10:17:12;;;;;;;28.58;14.35;;;;;;;-143.21;29.67;71431.72;6182102;23;20171;-78
2023/12/26 10:19:39;;;;;;;26.25;14.70;;;;;;;-143.21;28.31;71281.06;6208417;23;20233;-81
2023/12/26 10:22:06;;;;;;;26.73;15.32;;;;;;;-143.21;27.55;71191.84;6209200;23;20203;-81
2023/12/26 10:24:34;;;;;;;29.83;15.98;;;;;;;-143.21;26.63;71096.69;6207271;23;20442;-79
2023/12/26 10:27:01;;;;;;;24.08;14.82;;;;;;;-143.21;26.07;71043.16;6210116;23;20162;-76
2023/12/26 10:29:28;;;;;;;24.85;15.30;;;;;;;-143.21;25.73;70991.63;6207629;23;20170;-78
2023/12/26 10:32:00;;;;;;;26.00;15.27;;;;;;;-143.21;25.57;70981.69;6208377;23;20174;-79
2023/12/26 10:34:30;;;;;;;23.92;15.18;;;;;;;-143.21;25.51;71005.50;6207233;23;20162;-78
2023/12/26 10:36:58;;;;;;;23.40;16.65;;;;;;;-143.21;25.51;70997.56;6209215;23;20190;-78
2023/12/26 10:39:27;;;;;;;28.95;16.00;;;;;;;-143.21;25.39;70948.00;6211610;23;20205;-78
2023/12/26 10:41:56;;;;;;;25.38;16.05;;;;;;;-143.21;24.95;70912.31;6211219;23;20625;-77
2023/12/26 10:47:09;;;;;;;28.60;15.23;;;;;;;-143.21;25.05;70948.00;6189060;23;20166;-77
2023/12/26 10:49:40;;;;;;;24.67;13.48;;;;;;;-143.21;24.84;70898.44;6210168;23;20173;-73
2023/12/26 10:52:10;;;;;;;21.30;14.07;;;;;;;-143.21;24.56;70886.53;6211695;23;20237;-77
2023/12/26 10:54:39;;;;;;;21.95;13.38;;;;;;;-143.21;24.72;70856.81;6210178;23;20216;-79
2023/12/26 10:57:09;;;;;;;24.50;14.30;;;;;;;-143.21;24.37;70813.19;6209243;23;20198;-78
2023/12/26 13:51:28;;;;;;;21.00;11.43;;;;;;;-143.21;28.63;71604.22;6128633;23;20144;-91
2023/12/26 13:54:32;;;;;;;23.35;11.50;;;;;;;-143.21;29.54;71679.56;6129546;23;20249;-90
2023/12/26 13:57:36;;;;;;;36.28;11.50;;;;;;;-143.21;30.54;71770.78;6150238;23;20183;-91
2023/12/26 14:00:40;;;;;;;22.65;10.93;;;;;;;-143.21;31.36;71842.16;6132368;23;20176;-93
2023/12/26 14:03:49;;;;;;;20.67;10.73;;;;;;;-143.21;31.96;71887.78;6136453;23;20562;-93
2023/12/26 14:06:56;;;;;;;22.52;10.82;;;;;;;-143.21;32.57;71915.53;6123389;23;20160;-81